createdAt,value
2022-10-23T00:02:26.881Z,990.7
2022-10-23T00:06:32.854Z,990.7
2022-10-23T00:11:52.131Z,990.7
2022-10-23T00:17:10.918Z,990.6
2022-10-23T00:22:29.742Z,990.7
2022-10-23T00:27:48.561Z,990.7
2022-10-23T00:33:08.113Z,990.6
2022-10-23T00:38:27.438Z,990.6
2022-10-23T00:43:47.217Z,990.6
2022-10-23T00:49:06.409Z,990.4
2022-10-23T00:54:25.936Z,990.4
2022-10-23T01:02:58.956Z,990.3
2022-10-23T01:10:23.767Z,990.2
2022-10-23T01:15:42.679Z,990.2
2022-10-23T01:21:01.483Z,990.2
2022-10-23T01:26:20.590Z,990.2
2022-10-23T01:31:39.964Z,990.2
2022-10-23T01:36:59.040Z,990.1
2022-10-23T01:42:17.257Z,990
2022-10-23T01:47:36.531Z,990
2022-10-23T01:52:55.438Z,989.9
2022-10-23T01:58:14.350Z,989.9
2022-10-23T02:03:33.698Z,989.9
2022-10-23T02:08:52.442Z,990
2022-10-23T02:14:11.640Z,989.9
2022-10-23T02:19:30.445Z,990
2022-10-23T02:24:50.110Z,989.9
2022-10-23T02:30:09.733Z,989.9
2022-10-23T02:35:28.826Z,989.8
2022-10-23T02:40:47.704Z,989.8
2022-10-23T02:46:06.925Z,989.8
2022-10-23T02:51:25.766Z,989.8
2022-10-23T02:56:45.270Z,989.8
2022-10-23T03:02:04.691Z,989.6
2022-10-23T03:07:25.426Z,989.5
2022-10-23T03:12:43.051Z,989.5
2022-10-23T03:18:03.153Z,989.7
2022-10-23T03:23:22.875Z,989.6
2022-10-23T03:28:41.721Z,989.5
2022-10-23T03:34:03.066Z,989.4
2022-10-23T03:39:20.206Z,989.5
2022-10-23T03:44:39.474Z,989.5
2022-10-23T03:49:58.280Z,989.4
2022-10-23T03:55:17.822Z,989.3
2022-10-23T04:00:37.428Z,989.3
2022-10-23T04:05:56.374Z,989.1
2022-10-23T04:11:15.361Z,989.2
2022-10-23T04:16:34.498Z,989.1
2022-10-23T04:21:53.698Z,989.3
2022-10-23T04:27:12.909Z,989.3
2022-10-23T04:32:32.483Z,989.4
2022-10-23T04:37:51.285Z,989.5
2022-10-23T04:43:10.601Z,989.4
2022-10-23T04:48:29.794Z,989.4
2022-10-23T04:53:48.727Z,989.3
2022-10-23T04:59:07.805Z,989.3
2022-10-23T05:04:27.872Z,989.4
2022-10-23T05:09:47.249Z,989.2
2022-10-23T05:15:06.162Z,989.1
2022-10-23T05:20:25.162Z,989.1
2022-10-23T05:25:44.168Z,989.1
2022-10-23T05:31:03.937Z,989
2022-10-23T05:36:23.663Z,989.1
2022-10-23T05:41:43.141Z,989.2
2022-10-23T05:47:02.811Z,989.2
2022-10-23T05:52:22.408Z,989.1
2022-10-23T05:57:41.968Z,989.1
2022-10-23T06:03:01.465Z,989.3
2022-10-23T06:08:20.557Z,989.3
2022-10-23T06:13:40.338Z,989.2
2022-10-23T06:18:59.421Z,989.1
2022-10-23T06:24:19.013Z,989
2022-10-23T06:29:38.395Z,989
2022-10-23T06:34:57.558Z,989
2022-10-23T06:40:16.918Z,989
2022-10-23T06:45:36.301Z,988.9
2022-10-23T06:50:55.147Z,988.9
2022-10-23T06:57:29.321Z,988.8
2022-10-23T07:01:35.420Z,988.7
2022-10-23T07:06:54.742Z,988.8
2022-10-23T07:12:13.512Z,988.7
2022-10-23T07:17:32.805Z,988.6
2022-10-23T07:22:53.147Z,988.6
2022-10-23T07:28:11.563Z,988.7
2022-10-23T07:33:30.811Z,988.6
2022-10-23T07:38:49.975Z,988.5
2022-10-23T07:44:09.469Z,988.5
2022-10-23T07:49:28.960Z,988.6
2022-10-23T07:58:02.042Z,988.5
2022-10-23T08:05:27.521Z,988.4
2022-10-23T08:10:47.255Z,988.4
2022-10-23T08:16:06.807Z,988.4
2022-10-23T08:21:26.046Z,988.5
2022-10-23T08:29:59.123Z,988.5
2022-10-23T08:32:03.192Z,988.5
2022-10-23T08:39:01.778Z,988.5
2022-10-23T08:48:01.545Z,988.4
2022-10-23T08:53:20.509Z,988.4
2022-10-23T08:58:39.522Z,988.3
2022-10-23T09:03:58.523Z,988.2
2022-10-23T09:09:17.884Z,988.2
2022-10-23T09:14:36.890Z,988.1
2022-10-23T09:23:09.969Z,988.1
2022-10-23T09:27:26.486Z,988
2022-10-23T09:35:54.192Z,987.9
2022-10-23T09:44:27.286Z,987.8
2022-10-23T09:48:43.800Z,987.7
2022-10-23T09:51:51.648Z,987.6
2022-10-23T09:57:11.303Z,987.5
2022-10-23T10:02:30.267Z,987.4
2022-10-23T10:07:47.899Z,987.5
2022-10-23T10:13:06.630Z,987.4
2022-10-23T10:19:40.789Z,987.4
2022-10-23T10:23:57.534Z,987.3
2022-10-23T10:29:06.198Z,987.2
2022-10-23T10:34:25.268Z,987.3
2022-10-23T10:39:44.319Z,987.3
2022-10-23T10:48:29.413Z,987.3
2022-10-23T10:52:33.872Z,987.1
2022-10-23T10:55:41.245Z,987.2
2022-10-23T11:00:59.211Z,987.1
2022-10-23T11:06:18.380Z,987
2022-10-23T11:11:37.121Z,986.9
2022-10-23T11:16:55.861Z,986.9
2022-10-23T11:22:15.237Z,986.8
2022-10-23T11:27:33.939Z,986.7
2022-10-23T11:32:52.820Z,986.3
2022-10-23T11:38:21.362Z,986.1
2022-10-23T11:43:32.149Z,986.5
2022-10-23T11:48:50.477Z,986.6
2022-10-23T11:54:09.751Z,986.5
2022-10-23T11:59:30.059Z,986.4
2022-10-23T12:06:04.231Z,986.4
2022-10-23T12:10:09.903Z,986.1
2022-10-23T12:15:27.002Z,985.9
2022-10-23T12:20:46.498Z,986
2022-10-23T12:26:05.877Z,986
2022-10-23T12:31:23.587Z,985.9
2022-10-23T12:36:42.440Z,985.8
2022-10-23T12:42:01.962Z,985.7
2022-10-23T12:47:20.770Z,985.6
2022-10-23T12:52:40.432Z,985.6
2022-10-23T12:57:59.443Z,985.6
2022-10-23T13:03:18.973Z,985.5
2022-10-23T13:08:38.410Z,985.4
2022-10-23T13:13:58.059Z,985.5
2022-10-23T13:19:17.474Z,985.4
2022-10-23T13:24:36.875Z,985.5
2022-10-23T13:29:55.743Z,985.4
2022-10-23T13:35:21.650Z,985.3
2022-10-23T13:40:34.496Z,985.2
2022-10-23T13:45:53.994Z,985.2
2022-10-23T13:51:11.991Z,985.2
2022-10-23T13:56:30.630Z,985.2
2022-10-23T14:01:50.119Z,985.1
2022-10-23T14:07:09.927Z,985.2
2022-10-23T14:12:28.917Z,985.1
2022-10-23T14:18:13.819Z,985.2
2022-10-23T14:23:32.624Z,985.2
2022-10-23T14:28:51.352Z,985.1
2022-10-23T14:34:19.887Z,985
2022-10-23T14:39:30.437Z,984.9
2022-10-23T14:44:50.382Z,985
2022-10-23T14:50:09.327Z,985
2022-10-23T14:55:27.422Z,984.9
2022-10-23T15:00:56.791Z,984.7
2022-10-23T15:06:05.901Z,984.7
2022-10-23T15:11:25.275Z,984.8
2022-10-23T15:16:44.716Z,984.8
2022-10-23T15:22:03.804Z,984.7
2022-10-23T15:27:23.321Z,984.6
2022-10-23T15:32:42.166Z,984.5
2022-10-23T15:38:01.616Z,984.5
2022-10-23T15:43:20.822Z,984.6
2022-10-23T15:48:40.511Z,984.5
2022-10-23T15:53:59.797Z,984.4
2022-10-23T15:59:19.603Z,984.3
2022-10-23T16:04:37.924Z,984.1
2022-10-23T16:09:57.494Z,984
2022-10-23T16:15:16.738Z,983.9
2022-10-23T16:20:36.152Z,983.9
2022-10-23T16:25:55.815Z,983.8
2022-10-23T16:36:34.153Z,983.9
2022-10-23T16:41:53.186Z,984
2022-10-23T16:47:12.529Z,984
2022-10-23T16:52:31.763Z,984
2022-10-23T16:57:50.749Z,984.1
2022-10-23T17:03:10.308Z,984.1
2022-10-23T17:08:29.722Z,984.2
2022-10-23T17:13:49.749Z,984.1
2022-10-23T17:19:11.854Z,983.9
2022-10-23T17:24:27.651Z,983.9
2022-10-23T17:29:47.317Z,983.8
2022-10-23T17:35:06.540Z,983.8
2022-10-23T17:40:25.543Z,983.9
2022-10-23T17:45:45.923Z,984.2
2022-10-23T17:51:04.687Z,984.1
2022-10-23T17:56:23.364Z,984.2
2022-10-23T18:01:43.153Z,984.4
2022-10-23T18:07:02.633Z,984.6
2022-10-23T18:12:22.234Z,984.6
2022-10-23T18:17:41.181Z,984.6
2022-10-23T18:22:59.377Z,984.4
2022-10-23T18:28:19.200Z,984.4
2022-10-23T18:33:38.123Z,984.5
2022-10-23T18:38:57.425Z,984.6
2022-10-23T18:44:16.495Z,984.5
2022-10-23T18:49:35.744Z,984.7
2022-10-23T18:54:54.593Z,985.2
2022-10-23T19:00:13.686Z,985.7
2022-10-23T19:05:33.098Z,985.9
2022-10-23T19:10:51.963Z,985.7
2022-10-23T19:16:11.597Z,985.6
2022-10-23T19:21:31.801Z,985.4
2022-10-23T19:26:50.615Z,985.5
2022-10-23T19:33:24.845Z,985.3
2022-10-23T19:37:41.455Z,985.3
2022-10-23T19:42:48.598Z,986.1
2022-10-23T19:48:07.767Z,985.9
2022-10-23T19:53:24.974Z,985.7
2022-10-23T19:58:44.942Z,985.6
2022-10-23T20:05:19.086Z,985.5
2022-10-23T20:09:24.913Z,985
2022-10-23T20:14:41.706Z,985.1
2022-10-23T20:20:00.477Z,985.5
2022-10-23T20:25:20.175Z,985.2
2022-10-23T20:30:39.057Z,985.3
2022-10-23T20:35:59.057Z,985.3
2022-10-23T20:41:18.539Z,985.3
2022-10-23T20:46:36.840Z,985.4
2022-10-23T20:51:56.350Z,985.4
2022-10-23T20:57:17.874Z,985.5
2022-10-23T21:02:45.951Z,985.5
2022-10-23T21:08:01.427Z,985.5
2022-10-23T21:13:12.588Z,985.6
2022-10-23T21:18:46.240Z,985.5
2022-10-23T21:23:51.798Z,985.5
2022-10-23T21:29:18.828Z,985.6
2022-10-23T21:34:30.754Z,985.6
2022-10-23T21:39:48.861Z,985.5
2022-10-23T21:45:17.272Z,985.5
2022-10-23T21:50:28.454Z,985.6
2022-10-23T21:55:48.019Z,985.5
2022-10-23T22:01:06.826Z,985.5
2022-10-23T22:06:25.527Z,985.5
2022-10-23T22:11:44.467Z,985.5
2022-10-23T22:17:04.763Z,985.5
2022-10-23T22:22:23.183Z,985.6
2022-10-23T22:27:43.001Z,985.5
2022-10-23T22:34:24.930Z,985.4
2022-10-23T22:38:21.057Z,985.4
2022-10-23T22:43:40.348Z,985.3
2022-10-23T22:48:59.347Z,985.4
2022-10-23T22:54:18.461Z,985.4
2022-10-23T22:59:38.894Z,985.3
2022-10-23T23:06:13.038Z,985.3
2022-10-23T23:15:37.359Z,985.5
2022-10-23T23:20:55.345Z,985.3
2022-10-23T23:26:14.457Z,985.4
2022-10-23T23:31:33.499Z,985.5
2022-10-23T23:36:52.140Z,985.7
2022-10-23T23:42:11.706Z,985.6
2022-10-23T23:47:30.600Z,985.6
2022-10-23T23:52:50.543Z,985.5
2022-10-23T23:58:10.104Z,985.7
